Time;durP1;ratioP1;P1;durP2;ratioP2;P2;SDS_P1;SDS_P2;PMS_P1;PMS_P2;Temp;Humidity;BMP_temperature;BMP_pressure;BME280_temperature;BME280_humidity;BME280_pressure;Samples;Min_cycle;Max_cycle;Signal;HPM_P1;HPM_P2
2021/12/04 00:00:26;;;;;;;;;;;;;;;;;;5073524;28;1644;-79
2021/12/04 00:02:52;;;;;;;;;;;;;;;;;;5100217;28;1744;-79
2021/12/04 00:05:18;;;;;;;;;;;;;;;;;;5094124;28;1661;-78
2021/12/04 00:07:43;;;;;;;;;;;;;;;;;;5074354;28;1601;-78
2021/12/04 00:10:10;;;;;;;;;;;;;;;;;;5081329;28;1427;-79
2021/12/04 00:12:36;;;;;;;;;;;;;;;;;;5092515;28;1969;-78
2021/12/04 00:15:01;;;;;;;;;;;;;;;;;;5094267;28;1423;-78
2021/12/04 00:17:27;;;;;;;;;;;;;;;;;;5087546;28;1582;-78
2021/12/04 00:19:52;;;;;;;;;;;;;;;;;;5102586;28;1611;-79
2021/12/04 00:22:17;;;;;;;;;;;;;;;;;;5090060;28;1686;-79
2021/12/04 00:24:44;;;;;;;;;;;;;;;;;;5092982;28;1568;-79
2021/12/04 00:27:09;;;;;;;;;;;;;;;;;;5075491;28;1647;-78
2021/12/04 00:29:35;;;;;;;;;;;;;;;;;;5074441;28;1627;-79
2021/12/04 00:32:04;;;;;;;;;;;;;;;;;;5075226;28;1906;-78
2021/12/04 00:34:32;;;;;;;;;;;;;;;;;;5080932;28;1560;-78
2021/12/04 00:37:15;;;;;;;;;;;;;;;;;;5102503;28;1518;-78
2021/12/04 00:50:35;;;;;;;;;;;;;;;;;;5077625;28;1368;-78
2021/12/04 00:53:01;;;;;;;;;;;;;;;;;;5093030;28;1977;-78
2021/12/04 00:55:26;;;;;;;;;;;;;;;;;;5074752;28;1554;-78
2021/12/04 00:57:52;;;;;;;;;;;;;;;;;;5075382;28;1371;-78
2021/12/04 01:00:18;;;;;;;;;;;;;;;;;;5077507;28;1655;-78
2021/12/04 01:02:43;;;;;;;;;;;;;;;;;;5054512;28;1530;-78
2021/12/04 01:05:09;;;;;;;;;;;;;;;;;;5098522;28;1664;-78
2021/12/04 01:07:34;;;;;;;;;;;;;;;;;;5080732;28;1431;-78
2021/12/04 01:10:00;;;;;;;;;;;;;;;;;;5095170;28;1644;-79
2021/12/04 01:12:25;;;;;;;;;;;;;;;;;;5100128;28;1906;-78
2021/12/04 01:14:50;;;;;;;;;;;;;;;;;;5091913;28;1548;-78
2021/12/04 01:17:15;;;;;;;;;;;;;;;;;;5093842;28;1436;-78
2021/12/04 01:19:40;;;;;;;;;;;;;;;;;;5091744;28;1568;-78
2021/12/04 01:22:06;;;;;;;;;;;;;;;;;;5092082;28;1499;-78
2021/12/04 01:24:32;;;;;;;;;;;;;;;;;;5093462;28;791;-78
2021/12/04 01:26:57;;;;;;;;;;;;;;;;;;5091642;28;1737;-78
2021/12/04 01:29:22;;;;;;;;;;;;;;;;;;5091620;28;1664;-78
2021/12/04 01:31:47;;;;;;;;;;;;;;;;;;5076208;28;1966;-77
2021/12/04 01:34:13;;;;;;;;;;;;;;;;;;5105594;28;1412;-78
2021/12/04 01:36:38;;;;;;;;;;;;;;;;;;5097125;28;1578;-78
2021/12/04 01:39:07;;;;;;;;;;;;;;;;;;5091535;28;1650;-78
2021/12/04 01:41:35;;;;;;;;;;;;;;;;;;5074314;28;1452;-78
2021/12/04 01:44:01;;;;;;;;;;;;;;;;;;5084922;28;1622;-78
2021/12/04 01:46:27;;;;;;;;;;;;;;;;;;5093199;28;1025;-78
2021/12/04 01:48:52;;;;;;;;;;;;;;;;;;5081334;28;1625;-78
2021/12/04 01:51:19;;;;;;;;;;;;;;;;;;5112454;28;1897;-78
2021/12/04 01:53:45;;;;;;;;;;;;;;;;;;5095818;28;1918;-78
2021/12/04 01:56:13;;;;;;;;;;;;;;;;;;5073756;28;1611;-78
2021/12/04 01:58:38;;;;;;;;;;;;;;;;;;5098448;28;1618;-78
2021/12/04 02:01:03;;;;;;;;;;;;;;;;;;5074097;28;1756;-78
2021/12/04 02:03:29;;;;;;;;;;;;;;;;;;5092948;28;1614;-78
2021/12/04 02:05:54;;;;;;;;;;;;;;;;;;5094237;28;1755;-77
2021/12/04 02:08:20;;;;;;;;;;;;;;;;;;5069400;28;1626;-78
2021/12/04 02:10:46;;;;;;;;;;;;;;;;;;5073842;28;1624;-78
2021/12/04 02:13:13;;;;;;;;;;;;;;;;;;5071939;28;1966;-78
2021/12/04 02:15:38;;;;;;;;;;;;;;;;;;5073859;28;1640;-78
2021/12/04 02:18:05;;;;;;;;;;;;;;;;;;5099726;28;1630;-78
2021/12/04 02:20:33;;;;;;;;;;;;;;;;;;5076145;28;1475;-77
2021/12/04 02:22:58;;;;;;;;;;;;;;;;;;5078333;28;1709;-78
2021/12/04 02:25:24;;;;;;;;;;;;;;;;;;5100217;28;1478;-78
2021/12/04 02:27:49;;;;;;;;;;;;;;;;;;5090686;28;1595;-77
2021/12/04 02:30:16;;;;;;;;;;;;;;;;;;5073549;28;870;-77
2021/12/04 02:32:42;;;;;;;;;;;;;;;;;;5073548;28;1971;-78
2021/12/04 02:35:07;;;;;;;;;;;;;;;;;;5089819;28;1515;-77
2021/12/04 02:37:33;;;;;;;;;;;;;;;;;;5073880;28;1602;-78
2021/12/04 02:39:59;;;;;;;;;;;;;;;;;;5090385;28;1590;-78
2021/12/04 02:42:27;;;;;;;;;;;;;;;;;;5072670;28;1499;-77
2021/12/04 02:44:52;;;;;;;;;;;;;;;;;;5079813;28;1628;-77
2021/12/04 02:47:17;;;;;;;;;;;;;;;;;;5112298;28;901;-77
2021/12/04 02:49:43;;;;;;;;;;;;;;;;;;5085046;28;1614;-78
2021/12/04 02:52:09;;;;;;;;;;;;;;;;;;5075214;28;1972;-78
2021/12/04 02:54:35;;;;;;;;;;;;;;;;;;5090156;28;1520;-78
2021/12/04 02:57:00;;;;;;;;;;;;;;;;;;5091338;28;1439;-78
2021/12/04 02:59:26;;;;;;;;;;;;;;;;;;5091366;28;1442;-78
2021/12/04 03:01:54;;;;;;;;;;;;;;;;;;5088654;28;1655;-78
2021/12/04 03:04:21;;;;;;;;;;;;;;;;;;5091376;28;1475;-78
2021/12/04 03:06:47;;;;;;;;;;;;;;;;;;5075769;28;1624;-78
2021/12/04 03:09:13;;;;;;;;;;;;;;;;;;5073320;28;1484;-78
2021/12/04 03:11:38;;;;;;;;;;;;;;;;;;5088556;28;1913;-78
2021/12/04 03:14:03;;;;;;;;;;;;;;;;;;5090987;28;1440;-78
2021/12/04 03:16:29;;;;;;;;;;;;;;;;;;5089492;28;1599;-77
2021/12/04 03:18:57;;;;;;;;;;;;;;;;;;5073961;28;1949;-78
2021/12/04 03:21:22;;;;;;;;;;;;;;;;;;5087512;28;1602;-78
2021/12/04 03:26:19;;;;;;;;;;;;;;;;;;5092997;28;1579;-78
2021/12/04 03:28:45;;;;;;;;;;;;;;;;;;5081943;28;1609;-77
2021/12/04 03:31:18;;;;;;;;;;;;;;;;;;5109988;28;1651;-77
2021/12/04 03:41:55;;;;;;;;;;;;;;;;;;5079808;28;1564;-78
2021/12/04 03:44:22;;;;;;;;;;;;;;;;;;5096264;28;1631;-78
2021/12/04 03:46:48;;;;;;;;;;;;;;;;;;5096167;28;1579;-78
2021/12/04 03:49:13;;;;;;;;;;;;;;;;;;5076963;28;1553;-78
2021/12/04 03:51:39;;;;;;;;;;;;;;;;;;5061252;28;1987;-79
2021/12/04 03:54:04;;;;;;;;;;;;;;;;;;5086317;28;1520;-79
2021/12/04 03:56:31;;;;;;;;;;;;;;;;;;5104604;28;1625;-79
2021/12/04 03:58:56;;;;;;;;;;;;;;;;;;5095957;28;1563;-79
2021/12/04 04:01:22;;;;;;;;;;;;;;;;;;5108485;28;1603;-78
2021/12/04 04:03:47;;;;;;;;;;;;;;;;;;5096899;28;1435;-78
2021/12/04 04:06:12;;;;;;;;;;;;;;;;;;5097491;28;799;-78
2021/12/04 04:08:37;;;;;;;;;;;;;;;;;;5097427;28;1630;-78
2021/12/04 04:11:03;;;;;;;;;;;;;;;;;;5096949;28;918;-78
2021/12/04 04:13:28;;;;;;;;;;;;;;;;;;5104434;28;1901;-78
2021/12/04 04:15:53;;;;;;;;;;;;;;;;;;5099806;28;854;-78
2021/12/04 04:18:18;;;;;;;;;;;;;;;;;;5096683;28;1623;-78
2021/12/04 04:20:44;;;;;;;;;;;;;;;;;;5096686;28;1889;-78
2021/12/04 04:23:09;;;;;;;;;;;;;;;;;;5097370;28;1490;-78
2021/12/04 04:25:34;;;;;;;;;;;;;;;;;;5089404;28;1595;-78
2021/12/04 04:27:59;;;;;;;;;;;;;;;;;;5080839;28;1454;-78
2021/12/04 04:30:25;;;;;;;;;;;;;;;;;;5076756;28;1509;-78
2021/12/04 04:32:51;;;;;;;;;;;;;;;;;;5096868;28;1981;-78
2021/12/04 04:35:22;;;;;;;;;;;;;;;;;;5088979;28;1580;-78
2021/12/04 04:57:27;;;;;;;;;;;;;;;;;;5091393;28;1586;-78
2021/12/04 04:57:34;;;;;;;;;;;;;;;;;;5077150;28;1861;-78
2021/12/04 05:00:15;;;;;;;;;;;;;;;;;;5090172;28;1604;-78
2021/12/04 05:10:53;;;;;;;;;;;;;;;;;;5062424;28;1691;-79
2021/12/04 05:13:21;;;;;;;;;;;;;;;;;;5078712;28;2044;-79
2021/12/04 05:20:49;;;;;;;;;;;;;;;;;;5091005;28;1591;-79
2021/12/04 05:23:14;;;;;;;;;;;;;;;;;;5093501;28;1666;-80
2021/12/04 05:25:39;;;;;;;;;;;;;;;;;;5086029;28;1548;-80
2021/12/04 05:28:05;;;;;;;;;;;;;;;;;;5093240;28;883;-80
2021/12/04 05:30:30;;;;;;;;;;;;;;;;;;5091081;28;1683;-79
2021/12/04 05:32:55;;;;;;;;;;;;;;;;;;5101011;28;1901;-79
2021/12/04 05:35:21;;;;;;;;;;;;;;;;;;5107001;28;1512;-79
2021/12/04 05:37:46;;;;;;;;;;;;;;;;;;5074528;28;1397;-80
2021/12/04 05:40:13;;;;;;;;;;;;;;;;;;5090930;28;1599;-79
2021/12/04 05:42:38;;;;;;;;;;;;;;;;;;5073174;28;1639;-79
2021/12/04 05:45:07;;;;;;;;;;;;;;;;;;5091428;28;1568;-79
2021/12/04 05:47:40;;;;;;;;;;;;;;;;;;5075834;28;1701;-79
2021/12/04 05:50:25;;;;;;;;;;;;;;;;;;5094632;28;1395;-79
2021/12/04 05:53:04;;;;;;;;;;;;;;;;;;5097607;28;1972;-79
2021/12/04 05:55:32;;;;;;;;;;;;;;;;;;5100675;28;1532;-80
2021/12/04 05:57:57;;;;;;;;;;;;;;;;;;5091705;28;1551;-79
2021/12/04 06:00:23;;;;;;;;;;;;;;;;;;5091510;28;1721;-80
2021/12/04 06:02:49;;;;;;;;;;;;;;;;;;5092626;28;1200;-80
2021/12/04 06:05:14;;;;;;;;;;;;;;;;;;5089501;28;1599;-79
2021/12/04 06:07:39;;;;;;;;;;;;;;;;;;5103649;28;1595;-79
2021/12/04 06:10:07;;;;;;;;;;;;;;;;;;5085265;28;1613;-80
2021/12/04 06:12:34;;;;;;;;;;;;;;;;;;5091955;28;1913;-79
2021/12/04 06:15:00;;;;;;;;;;;;;;;;;;5112045;28;1467;-79
2021/12/04 06:17:28;;;;;;;;;;;;;;;;;;5090941;28;1751;-80
2021/12/04 06:22:40;;;;;;;;;;;;;;;;;;5097751;28;1628;-80
2021/12/04 06:25:08;;;;;;;;;;;;;;;;;;5106102;28;1571;-79
2021/12/04 06:27:33;;;;;;;;;;;;;;;;;;5091946;28;1427;-80
2021/12/04 06:29:58;;;;;;;;;;;;;;;;;;5090157;28;1612;-79
2021/12/04 06:32:23;;;;;;;;;;;;;;;;;;5109055;28;1897;-79
2021/12/04 06:34:49;;;;;;;;;;;;;;;;;;5081263;28;1683;-79
2021/12/04 06:37:15;;;;;;;;;;;;;;;;;;5083523;28;1612;-79
2021/12/04 06:39:40;;;;;;;;;;;;;;;;;;5078725;28;1661;-79
2021/12/04 06:42:06;;;;;;;;;;;;;;;;;;5093010;28;1634;-79
2021/12/04 06:44:31;;;;;;;;;;;;;;;;;;5093800;28;1241;-79
2021/12/04 06:46:56;;;;;;;;;;;;;;;;;;5094018;28;1607;-80
2021/12/04 06:49:30;;;;;;;;;;;;;;;;;;5088526;28;1631;-80
2021/12/04 06:51:58;;;;;;;;;;;;;;;;;;5105224;28;1893;-80
2021/12/04 06:54:27;;;;;;;;;;;;;;;;;;5093569;28;1313;-80
2021/12/04 06:56:53;;;;;;;;;;;;;;;;;;5089986;28;2017;-80
2021/12/04 06:59:31;;;;;;;;;;;;;;;;;;5102166;28;1747;-79
2021/12/04 07:01:56;;;;;;;;;;;;;;;;;;5099661;28;1591;-79
2021/12/04 07:04:23;;;;;;;;;;;;;;;;;;5097153;28;1703;-80
2021/12/04 07:06:50;;;;;;;;;;;;;;;;;;5073059;28;1578;-79
2021/12/04 07:09:15;;;;;;;;;;;;;;;;;;5090117;28;1603;-79
2021/12/04 07:11:40;;;;;;;;;;;;;;;;;;5088881;28;1897;-79
2021/12/04 07:14:06;;;;;;;;;;;;;;;;;;5090098;28;1573;-79
2021/12/04 07:16:32;;;;;;;;;;;;;;;;;;5099510;28;1612;-79
2021/12/04 07:18:57;;;;;;;;;;;;;;;;;;5086228;28;1577;-79
2021/12/04 07:21:23;;;;;;;;;;;;;;;;;;5072577;28;1130;-78
2021/12/04 07:23:48;;;;;;;;;;;;;;;;;;5109148;28;2010;-79
2021/12/04 07:26:16;;;;;;;;;;;;;;;;;;5076651;28;1589;-79
2021/12/04 07:28:41;;;;;;;;;;;;;;;;;;5102177;28;1603;-79
2021/12/04 07:31:09;;;;;;;;;;;;;;;;;;5081028;28;1587;-79
2021/12/04 07:33:34;;;;;;;;;;;;;;;;;;5093373;28;1981;-79
2021/12/04 07:36:00;;;;;;;;;;;;;;;;;;5072517;28;1619;-79
2021/12/04 07:38:25;;;;;;;;;;;;;;;;;;5073196;28;1472;-79
2021/12/04 07:40:50;;;;;;;;;;;;;;;;;;5088893;28;1618;-79
2021/12/04 07:43:16;;;;;;;;;;;;;;;;;;5101377;28;1646;-79
2021/12/04 07:45:41;;;;;;;;;;;;;;;;;;5078120;28;1416;-80
2021/12/04 07:48:06;;;;;;;;;;;;;;;;;;5080510;28;1627;-79
2021/12/04 07:50:32;;;;;;;;;;;;;;;;;;5078437;28;1490;-80
2021/12/04 07:52:58;;;;;;;;;;;;;;;;;;5089143;28;1906;-80
2021/12/04 07:55:23;;;;;;;;;;;;;;;;;;5070163;28;1579;-80
2021/12/04 07:57:48;;;;;;;;;;;;;;;;;;5070721;28;1528;-79
2021/12/04 08:00:14;;;;;;;;;;;;;;;;;;5088401;28;1664;-80
2021/12/04 08:02:41;;;;;;;;;;;;;;;;;;5071788;28;1559;-80
2021/12/04 08:05:07;;;;;;;;;;;;;;;;;;5057390;28;1606;-79
2021/12/04 08:07:33;;;;;;;;;;;;;;;;;;5069897;28;1564;-79
2021/12/04 08:09:58;;;;;;;;;;;;;;;;;;5089248;28;1699;-80
2021/12/04 08:12:23;;;;;;;;;;;;;;;;;;5070720;28;1922;-80
2021/12/04 08:14:51;;;;;;;;;;;;;;;;;;5074177;28;1659;-80
2021/12/04 08:17:16;;;;;;;;;;;;;;;;;;5089890;28;1552;-80
2021/12/04 08:19:41;;;;;;;;;;;;;;;;;;5074709;28;1593;-80
2021/12/04 08:22:06;;;;;;;;;;;;;;;;;;5092438;28;1583;-79
2021/12/04 08:24:31;;;;;;;;;;;;;;;;;;5082658;28;1703;-79
2021/12/04 08:26:57;;;;;;;;;;;;;;;;;;5089176;28;1612;-79
2021/12/04 08:29:22;;;;;;;;;;;;;;;;;;5080848;28;1552;-79
2021/12/04 08:31:50;;;;;;;;;;;;;;;;;;5107208;28;1901;-80
2021/12/04 08:34:15;;;;;;;;;;;;;;;;;;5106522;28;1724;-80
2021/12/04 08:36:40;;;;;;;;;;;;;;;;;;5102952;28;1677;-79
2021/12/04 08:39:06;;;;;;;;;;;;;;;;;;5092641;28;1500;-80
2021/12/04 08:41:31;;;;;;;;;;;;;;;;;;5073954;28;1544;-80
2021/12/04 08:43:56;;;;;;;;;;;;;;;;;;5078277;28;1711;-80
2021/12/04 08:46:22;;;;;;;;;;;;;;;;;;5092900;28;1511;-80
2021/12/04 08:48:51;;;;;;;;;;;;;;;;;;5085194;28;1588;-80
2021/12/04 08:51:18;;;;;;;;;;;;;;;;;;5104459;28;1603;-80
2021/12/04 08:53:43;;;;;;;;;;;;;;;;;;5073981;28;1897;-80
2021/12/04 08:56:08;;;;;;;;;;;;;;;;;;5096464;28;1605;-80
2021/12/04 08:58:36;;;;;;;;;;;;;;;;;;5075668;28;1413;-79
2021/12/04 09:01:02;;;;;;;;;;;;;;;;;;5073814;28;1528;-79
2021/12/04 09:03:30;;;;;;;;;;;;;;;;;;5074170;28;1585;-79
2021/12/04 09:05:55;;;;;;;;;;;;;;;;;;5057800;28;1338;-79
2021/12/04 09:08:21;;;;;;;;;;;;;;;;;;5061691;28;1547;-79
2021/12/04 09:10:48;;;;;;;;;;;;;;;;;;5096319;28;1435;-79
2021/12/04 09:13:14;;;;;;;;;;;;;;;;;;5092872;28;1967;-79
2021/12/04 09:15:47;;;;;;;;;;;;;;;;;;5090458;28;1634;-79
2021/12/04 09:18:12;;;;;;;;;;;;;;;;;;5056644;28;1579;-79
2021/12/04 09:20:37;;;;;;;;;;;;;;;;;;5092424;28;1446;-79
2021/12/04 09:23:06;;;;;;;;;;;;;;;;;;5089267;28;1630;-79
2021/12/04 09:25:33;;;;;;;;;;;;;;;;;;5082965;28;1563;-79
2021/12/04 09:35:53;;;;;;;;;;;;;;;;;;5106481;28;1581;-76
2021/12/04 10:00:17;;;;;;;;;;;;;;;;;;5102716;28;1670;-76
2021/12/04 10:05:34;;;;;;;;;;;;;;;;;;5105216;28;1639;-76
2021/12/04 10:24:11;;;;;;;;;;;;;;;;;;5108738;28;1631;-77
2021/12/04 10:34:58;;;;;;;;;;;;;;;;;;5104155;28;1709;-77
2021/12/04 10:37:25;;;;;;;;;;;;;;;;;;5090898;28;1576;-76
2021/12/04 10:39:51;;;;;;;;;;;;;;;;;;5092499;28;1616;-77
2021/12/04 10:42:20;;;;;;;;;;;;;;;;;;5072007;28;1590;-77
2021/12/04 10:44:51;;;;;;;;;;;;;;;;;;5091494;28;878;-77
2021/12/04 10:47:22;;;;;;;;;;;;;;;;;;5098936;28;1567;-76
2021/12/04 10:50:10;;;;;;;;;;;;;;;;;;5062421;28;1601;-76
2021/12/04 11:03:18;;;;;;;;;;;;;;;;;;5095212;28;1790;-76
2021/12/04 11:38:39;;;;;;;;;;;;;;;;;;5071007;28;1639;-76
2021/12/04 11:41:26;;;;;;;;;;;;;;;;;;5088811;28;1743;-75
2021/12/04 11:43:59;;;;;;;;;;;;;;;;;;5084076;28;1818;-76
2021/12/04 11:46:28;;;;;;;;;;;;;;;;;;5072949;28;1602;-75
2021/12/04 11:48:56;;;;;;;;;;;;;;;;;;5076678;28;1432;-75
2021/12/04 11:51:23;;;;;;;;;;;;;;;;;;5091206;28;1643;-75
2021/12/04 11:53:49;;;;;;;;;;;;;;;;;;5088123;28;1989;-76
2021/12/04 11:56:19;;;;;;;;;;;;;;;;;;5088036;28;1536;-75
2021/12/04 11:58:45;;;;;;;;;;;;;;;;;;5075599;28;1599;-75
2021/12/04 12:01:25;;;;;;;;;;;;;;;;;;5074557;28;1629;-75
2021/12/04 12:03:52;;;;;;;;;;;;;;;;;;5093580;28;1963;-75
2021/12/04 12:06:17;;;;;;;;;;;;;;;;;;5106964;28;1594;-75
2021/12/04 12:08:43;;;;;;;;;;;;;;;;;;5086101;28;1581;-75
2021/12/04 12:11:09;;;;;;;;;;;;;;;;;;5076985;28;1568;-75
2021/12/04 12:13:42;;;;;;;;;;;;;;;;;;5115212;28;1901;-76
2021/12/04 12:16:13;;;;;;;;;;;;;;;;;;5107446;28;1690;-75
2021/12/04 12:18:42;;;;;;;;;;;;;;;;;;5082224;28;1623;-75
2021/12/04 12:21:11;;;;;;;;;;;;;;;;;;5092228;28;1667;-75
2021/12/04 12:24:11;;;;;;;;;;;;;;;;;;5070931;28;1606;-76
2021/12/04 12:26:41;;;;;;;;;;;;;;;;;;5093332;28;1429;-75
2021/12/04 12:37:22;;;;;;;;;;;;;;;;;;5065439;28;1667;-75
2021/12/04 12:39:55;;;;;;;;;;;;;;;;;;5076073;28;1648;-75
2021/12/04 12:42:41;;;;;;;;;;;;;;;;;;5072861;28;1583;-75
2021/12/04 12:45:16;;;;;;;;;;;;;;;;;;5104207;28;1609;-74
2021/12/04 12:48:08;;;;;;;;;;;;;;;;;;5094234;28;1584;-74
2021/12/04 12:50:38;;;;;;;;;;;;;;;;;;5088721;28;1563;-73
2021/12/04 12:53:05;;;;;;;;;;;;;;;;;;5074185;28;1983;-73
2021/12/04 12:55:32;;;;;;;;;;;;;;;;;;5076415;28;1770;-74
2021/12/04 12:57:58;;;;;;;;;;;;;;;;;;5074862;28;1622;-74
2021/12/04 13:11:44;;;;;;;;;;;;;;;;;;5060630;28;1516;-75
2021/12/04 13:14:09;;;;;;;;;;;;;;;;;;5106592;28;1353;-75
2021/12/04 13:16:34;;;;;;;;;;;;;;;;;;5107796;28;1618;-75
2021/12/04 13:19:03;;;;;;;;;;;;;;;;;;5093342;28;1616;-75
2021/12/04 13:21:29;;;;;;;;;;;;;;;;;;5088261;28;1675;-75
2021/12/04 13:23:56;;;;;;;;;;;;;;;;;;5073631;28;1713;-75
2021/12/04 13:26:25;;;;;;;;;;;;;;;;;;5071450;28;2023;-75
2021/12/04 13:28:50;;;;;;;;;;;;;;;;;;5093774;28;1595;-75
2021/12/04 13:31:17;;;;;;;;;;;;;;;;;;5070319;28;1637;-75
2021/12/04 13:33:44;;;;;;;;;;;;;;;;;;5085758;28;1909;-75
2021/12/04 13:36:13;;;;;;;;;;;;;;;;;;5087677;28;1387;-76
2021/12/04 13:38:39;;;;;;;;;;;;;;;;;;5093569;28;1708;-75
2021/12/04 13:41:04;;;;;;;;;;;;;;;;;;5085298;28;1638;-76
2021/12/04 13:43:29;;;;;;;;;;;;;;;;;;5096731;28;1616;-75
2021/12/04 13:45:58;;;;;;;;;;;;;;;;;;5110612;28;1642;-76
2021/12/04 13:48:24;;;;;;;;;;;;;;;;;;5075310;28;1511;-76
2021/12/04 13:50:49;;;;;;;;;;;;;;;;;;5078366;28;1584;-75
2021/12/04 13:53:16;;;;;;;;;;;;;;;;;;5102559;28;1906;-76
2021/12/04 13:55:46;;;;;;;;;;;;;;;;;;5110741;28;1587;-75
2021/12/04 13:58:11;;;;;;;;;;;;;;;;;;5091570;28;1679;-73
2021/12/04 14:00:36;;;;;;;;;;;;;;;;;;5073970;28;1583;-73
2021/12/04 14:03:02;;;;;;;;;;;;;;;;;;5075780;28;1471;-73
2021/12/04 14:05:29;;;;;;;;;;;;;;;;;;5100250;28;1622;-73
2021/12/04 14:07:56;;;;;;;;;;;;;;;;;;5073429;28;1591;-74
2021/12/04 14:10:25;;;;;;;;;;;;;;;;;;5072592;28;1599;-74
2021/12/04 14:12:51;;;;;;;;;;;;;;;;;;5089944;28;1909;-73
2021/12/04 14:15:17;;;;;;;;;;;;;;;;;;5074911;28;1575;-74
2021/12/04 14:17:42;;;;;;;;;;;;;;;;;;5091301;28;1578;-73
2021/12/04 14:20:08;;;;;;;;;;;;;;;;;;5091810;28;1678;-74
2021/12/04 14:22:33;;;;;;;;;;;;;;;;;;5086146;28;1624;-74
2021/12/04 14:25:02;;;;;;;;;;;;;;;;;;5075520;28;1914;-74
2021/12/04 14:27:31;;;;;;;;;;;;;;;;;;5092448;28;954;-74
2021/12/04 14:30:09;;;;;;;;;;;;;;;;;;5091973;28;1928;-74
2021/12/04 14:32:37;;;;;;;;;;;;;;;;;;5073592;28;1980;-74
2021/12/04 14:35:15;;;;;;;;;;;;;;;;;;5102503;28;1113;-74
2021/12/04 14:37:42;;;;;;;;;;;;;;;;;;5112471;28;909;-73
2021/12/04 14:40:08;;;;;;;;;;;;;;;;;;5093873;28;917;-74
2021/12/04 14:42:34;;;;;;;;;;;;;;;;;;5093421;28;1883;-73
2021/12/04 14:45:06;;;;;;;;;;;;;;;;;;5091917;28;861;-74
2021/12/04 14:47:33;;;;;;;;;;;;;;;;;;5073778;28;1271;-74
2021/12/04 14:50:01;;;;;;;;;;;;;;;;;;5073548;28;823;-74
2021/12/04 14:52:27;;;;;;;;;;;;;;;;;;5073232;28;1972;-74
2021/12/04 14:54:52;;;;;;;;;;;;;;;;;;5091486;28;1017;-75
2021/12/04 14:57:24;;;;;;;;;;;;;;;;;;5091658;28;842;-74
2021/12/04 15:00:05;;;;;;;;;;;;;;;;;;5091395;28;913;-74
2021/12/04 15:02:30;;;;;;;;;;;;;;;;;;5090181;28;1963;-74
2021/12/04 15:04:57;;;;;;;;;;;;;;;;;;5072471;28;1516;-74
2021/12/04 15:07:25;;;;;;;;;;;;;;;;;;5053306;28;1296;-74
2021/12/04 15:09:51;;;;;;;;;;;;;;;;;;5068818;28;1569;-74
2021/12/04 15:12:31;;;;;;;;;;;;;;;;;;5090413;28;1921;-73
2021/12/04 15:14:58;;;;;;;;;;;;;;;;;;5073153;28;866;-74
2021/12/04 15:17:24;;;;;;;;;;;;;;;;;;5091109;28;1430;-73
2021/12/04 15:19:53;;;;;;;;;;;;;;;;;;5091404;28;894;-75
2021/12/04 15:22:21;;;;;;;;;;;;;;;;;;5089675;28;1428;-75
2021/12/04 15:24:48;;;;;;;;;;;;;;;;;;5090930;28;1602;-75
2021/12/04 15:27:15;;;;;;;;;;;;;;;;;;5091833;28;811;-74
2021/12/04 15:29:43;;;;;;;;;;;;;;;;;;5073381;28;1627;-74
2021/12/04 15:32:09;;;;;;;;;;;;;;;;;;5090677;28;1967;-74
2021/12/04 15:34:51;;;;;;;;;;;;;;;;;;5075827;28;1499;-74
2021/12/04 15:37:34;;;;;;;;;;;;;;;;;;5057009;28;1504;-74
2021/12/04 15:40:00;;;;;;;;;;;;;;;;;;5091015;28;854;-74
2021/12/04 15:50:13;;;;;;;;;;;;;;;;;;5091127;28;1417;-75
2021/12/04 15:55:15;;;;;;;;;;;;;;;;;;5090424;28;1427;-74
2021/12/04 15:57:50;;;;;;;;;;;;;;;;;;5090448;28;1611;-74
2021/12/04 16:00:16;;;;;;;;;;;;;;;;;;5090948;28;961;-75
2021/12/04 16:02:44;;;;;;;;;;;;;;;;;;5072709;28;1365;-75
2021/12/04 16:05:11;;;;;;;;;;;;;;;;;;5090566;28;1760;-75
2021/12/04 16:07:36;;;;;;;;;;;;;;;;;;5090818;28;1491;-76
2021/12/04 16:10:09;;;;;;;;;;;;;;;;;;5072106;28;1705;-76
2021/12/04 16:12:37;;;;;;;;;;;;;;;;;;5090820;28;1969;-75
2021/12/04 16:15:02;;;;;;;;;;;;;;;;;;5090043;28;1495;-75
2021/12/04 16:17:27;;;;;;;;;;;;;;;;;;5040960;28;1519;-76
2021/12/04 16:20:04;;;;;;;;;;;;;;;;;;5090575;28;1459;-76
2021/12/04 16:22:35;;;;;;;;;;;;;;;;;;5091585;28;1322;-75
2021/12/04 16:25:03;;;;;;;;;;;;;;;;;;5090363;28;1424;-75
2021/12/04 16:27:32;;;;;;;;;;;;;;;;;;5072562;28;1167;-76
2021/12/04 16:30:13;;;;;;;;;;;;;;;;;;5072931;28;933;-76
2021/12/04 16:32:56;;;;;;;;;;;;;;;;;;5090028;28;1917;-76
2021/12/04 16:35:38;;;;;;;;;;;;;;;;;;5086028;28;1389;-75
2021/12/04 16:38:04;;;;;;;;;;;;;;;;;;5102582;28;1392;-75
2021/12/04 16:40:36;;;;;;;;;;;;;;;;;;5093797;28;819;-74
2021/12/04 16:43:11;;;;;;;;;;;;;;;;;;5093841;28;1447;-75
2021/12/04 16:45:37;;;;;;;;;;;;;;;;;;5076868;28;1415;-75
2021/12/04 16:48:06;;;;;;;;;;;;;;;;;;5093767;28;1661;-75
2021/12/04 16:50:45;;;;;;;;;;;;;;;;;;5093758;28;902;-75
2021/12/04 16:58:44;;;;;;;;;;;;;;;;;;5048050;28;1502;-75
2021/12/04 17:01:10;;;;;;;;;;;;;;;;;;5062310;28;1440;-75
2021/12/04 17:03:35;;;;;;;;;;;;;;;;;;5075388;28;1345;-75
2021/12/04 17:06:00;;;;;;;;;;;;;;;;;;5093426;28;1658;-74
2021/12/04 17:08:26;;;;;;;;;;;;;;;;;;5062310;28;1413;-75
2021/12/04 17:10:51;;;;;;;;;;;;;;;;;;5092423;28;1562;-75
2021/12/04 17:13:16;;;;;;;;;;;;;;;;;;5058192;28;1913;-74
2021/12/04 17:15:48;;;;;;;;;;;;;;;;;;5074786;28;1446;-75
2021/12/04 17:18:16;;;;;;;;;;;;;;;;;;5093657;28;1192;-75
2021/12/04 17:20:42;;;;;;;;;;;;;;;;;;5075303;28;886;-74
2021/12/04 17:23:07;;;;;;;;;;;;;;;;;;5075250;28;1302;-74
2021/12/04 17:25:35;;;;;;;;;;;;;;;;;;5093311;28;1340;-75
2021/12/04 17:28:00;;;;;;;;;;;;;;;;;;5075733;28;846;-74
2021/12/04 17:30:25;;;;;;;;;;;;;;;;;;5092555;28;1360;-75
2021/12/04 17:32:51;;;;;;;;;;;;;;;;;;5092645;28;1902;-76
2021/12/04 17:35:19;;;;;;;;;;;;;;;;;;5078074;28;1406;-75
2021/12/04 17:37:45;;;;;;;;;;;;;;;;;;5093364;28;925;-75
2021/12/04 17:40:11;;;;;;;;;;;;;;;;;;5073807;28;1249;-75
2021/12/04 17:42:36;;;;;;;;;;;;;;;;;;5074711;28;1687;-75
2021/12/04 17:45:03;;;;;;;;;;;;;;;;;;5091947;28;1399;-75
2021/12/04 17:47:31;;;;;;;;;;;;;;;;;;5093280;28;850;-75
2021/12/04 17:49:56;;;;;;;;;;;;;;;;;;5092936;28;834;-74
2021/12/04 17:52:21;;;;;;;;;;;;;;;;;;5057995;28;1969;-75
2021/12/04 17:54:49;;;;;;;;;;;;;;;;;;5074501;28;1662;-74
2021/12/04 17:57:14;;;;;;;;;;;;;;;;;;5074569;28;1524;-74
2021/12/04 17:59:39;;;;;;;;;;;;;;;;;;5074282;28;1404;-74
2021/12/04 18:02:06;;;;;;;;;;;;;;;;;;5073551;28;1337;-76
2021/12/04 18:04:34;;;;;;;;;;;;;;;;;;5074214;28;1410;-76
2021/12/04 18:07:01;;;;;;;;;;;;;;;;;;5073976;28;1291;-76
2021/12/04 18:09:30;;;;;;;;;;;;;;;;;;5074198;28;1500;-76
2021/12/04 18:11:57;;;;;;;;;;;;;;;;;;5091010;28;1981;-75
2021/12/04 18:14:23;;;;;;;;;;;;;;;;;;5074409;28;1348;-75
2021/12/04 18:16:50;;;;;;;;;;;;;;;;;;5073866;28;1369;-75
2021/12/04 18:19:18;;;;;;;;;;;;;;;;;;5074380;28;1186;-74
2021/12/04 18:21:44;;;;;;;;;;;;;;;;;;5073368;28;1349;-75
2021/12/04 18:24:09;;;;;;;;;;;;;;;;;;5074431;28;811;-75
2021/12/04 18:26:35;;;;;;;;;;;;;;;;;;5092009;28;1416;-74
2021/12/04 18:29:00;;;;;;;;;;;;;;;;;;5091642;28;1344;-74
2021/12/04 18:31:25;;;;;;;;;;;;;;;;;;5073046;28;1622;-74
2021/12/04 18:33:51;;;;;;;;;;;;;;;;;;5073352;28;1963;-74
2021/12/04 18:36:16;;;;;;;;;;;;;;;;;;5068407;28;1443;-74
2021/12/04 18:38:42;;;;;;;;;;;;;;;;;;5084660;28;1066;-74
2021/12/04 18:41:08;;;;;;;;;;;;;;;;;;5079533;28;1365;-74
2021/12/04 18:43:40;;;;;;;;;;;;;;;;;;5092036;28;1250;-73
2021/12/04 18:46:08;;;;;;;;;;;;;;;;;;5091772;28;1330;-73
2021/12/04 18:48:33;;;;;;;;;;;;;;;;;;5091977;28;878;-73
2021/12/04 18:50:58;;;;;;;;;;;;;;;;;;5072819;28;1448;-73
2021/12/04 18:53:24;;;;;;;;;;;;;;;;;;5073545;28;1893;-73
2021/12/04 18:55:49;;;;;;;;;;;;;;;;;;5091375;28;1346;-73
2021/12/04 18:58:14;;;;;;;;;;;;;;;;;;5072195;28;1467;-73
2021/12/04 19:00:40;;;;;;;;;;;;;;;;;;5072382;28;1499;-73
2021/12/04 19:03:06;;;;;;;;;;;;;;;;;;5073154;28;1388;-73
2021/12/04 19:05:32;;;;;;;;;;;;;;;;;;5090612;28;1490;-73
2021/12/04 19:07:57;;;;;;;;;;;;;;;;;;5091217;28;1479;-73
2021/12/04 19:10:22;;;;;;;;;;;;;;;;;;5072300;28;2482;-74
2021/12/04 19:12:48;;;;;;;;;;;;;;;;;;5072608;28;1939;-74
2021/12/04 19:15:15;;;;;;;;;;;;;;;;;;5072586;28;1744;-74
2021/12/04 19:17:41;;;;;;;;;;;;;;;;;;5073843;28;1243;-74
2021/12/04 19:20:09;;;;;;;;;;;;;;;;;;5090913;28;814;-74
2021/12/04 19:22:38;;;;;;;;;;;;;;;;;;5090919;28;1470;-74
2021/12/04 19:25:04;;;;;;;;;;;;;;;;;;5090948;28;1413;-73
2021/12/04 19:27:29;;;;;;;;;;;;;;;;;;5073155;28;1355;-74
2021/12/04 19:29:54;;;;;;;;;;;;;;;;;;5091210;28;850;-73
2021/12/04 19:32:23;;;;;;;;;;;;;;;;;;5090319;28;1910;-74
2021/12/04 19:36:01;;;;;;;;;;;;;;;;;;5099141;28;1372;-73
2021/12/04 19:48:43;;;;;;;;;;;;;;;;;;5091357;28;653;-73
2021/12/04 19:51:08;;;;;;;;;;;;;;;;;;5074479;28;1313;-73
2021/12/04 19:56:55;;;;;;;;;;;;;;;;;;5047677;28;1374;-73
2021/12/04 19:59:22;;;;;;;;;;;;;;;;;;5053660;28;1527;-73
2021/12/04 20:02:05;;;;;;;;;;;;;;;;;;5061654;28;1408;-73
2021/12/04 20:14:55;;;;;;;;;;;;;;;;;;5094949;28;643;-73
2021/12/04 20:17:20;;;;;;;;;;;;;;;;;;5076542;28;1298;-74
2021/12/04 20:19:46;;;;;;;;;;;;;;;;;;5076562;28;819;-74
2021/12/04 20:22:12;;;;;;;;;;;;;;;;;;5075085;28;1393;-74
2021/12/04 20:24:41;;;;;;;;;;;;;;;;;;5075849;28;1492;-74
2021/12/04 20:27:08;;;;;;;;;;;;;;;;;;5093968;28;1415;-74
2021/12/04 20:32:46;;;;;;;;;;;;;;;;;;5077628;28;1967;-73
2021/12/04 21:50:33;;;;;;;;;;;;;;;;;;5092655;28;593;-74
2021/12/04 21:52:58;;;;;;;;;;;;;;;;;;5074157;28;1906;-74
2021/12/04 21:58:52;;;;;;;;;;;;;;;;;;5092764;28;1296;-74
2021/12/04 22:11:37;;;;;;;;;;;;;;;;;;5075763;28;1301;-73
2021/12/04 22:16:57;;;;;;;;;;;;;;;;;;5092293;28;1556;-75